Time;durP1;ratioP1;P1;durP2;ratioP2;P2;SDS_P1;SDS_P2;PMS_P1;PMS_P2;Temp;Humidity;BMP_temperature;BMP_pressure;BME280_temperature;BME280_humidity;BME280_pressure;Samples;Min_cycle;Max_cycle;Signal;HPM_P1;HPM_P2
2023/12/28 00:03:23;;;;;;;;;;;;;;;2.85;100.00;95859.50;10617896;27;1842;-69
2023/12/28 00:08:27;;;;;;;;;;;;;;;2.85;100.00;95859.50;10561214;27;1885;-64
2023/12/28 00:13:39;;;;;;;;;;;;;;;2.89;100.00;95865.97;10588956;27;5097;-64
2023/12/28 00:18:42;;;;;;;;;;;;;;;2.84;100.00;95871.16;10583038;27;1989;-64
2023/12/28 00:23:46;;;;;;;;;;;;;;;2.77;100.00;95862.44;10572309;27;1990;-63
2023/12/28 00:28:49;;;;;;;;;;;;;;;2.88;100.00;95861.72;10600918;27;1858;-64
2023/12/28 00:33:54;;;;;;;;;;;;;;;3.04;100.00;95860.28;10597998;27;1870;-65
2023/12/28 00:38:58;;;;;;;;;;;;;;;2.81;100.00;95848.53;10591068;27;1970;-64
2023/12/28 00:44:02;;;;;;;;;;;;;;;2.79;100.00;95849.75;10588869;27;2496;-64
2023/12/28 00:49:08;;;;;;;;;;;;;;;2.71;100.00;95864.16;10601895;27;1950;-65
2023/12/28 00:54:11;;;;;;;;;;;;;;;2.87;100.00;95876.84;10602374;27;1991;-63
2023/12/28 00:59:18;;;;;;;;;;;;;;;2.77;100.00;95870.41;10590889;27;1984;-64
2023/12/28 01:04:25;;;;;;;;;;;;;;;2.85;100.00;95875.41;10590513;27;1916;-64
2023/12/28 01:09:28;;;;;;;;;;;;;;;2.92;100.00;95870.84;10597442;27;2064;-65
2023/12/28 01:14:32;;;;;;;;;;;;;;;2.90;100.00;95883.53;10603599;27;2084;-64
2023/12/28 01:19:38;;;;;;;;;;;;;;;2.88;100.00;95888.25;10608065;27;2028;-64
2023/12/28 01:24:51;;;;;;;;;;;;;;;2.92;100.00;95905.34;10600348;27;2092;-64
2023/12/28 01:29:55;;;;;;;;;;;;;;;2.91;100.00;95906.38;10598293;27;1851;-64
2023/12/28 01:34:58;;;;;;;;;;;;;;;2.90;100.00;95908.25;10562840;27;2138;-65
2023/12/28 01:40:02;;;;;;;;;;;;;;;2.92;100.00;95913.31;10583320;27;2171;-64
2023/12/28 01:45:11;;;;;;;;;;;;;;;2.96;100.00;95917.16;10600398;27;1921;-64
2023/12/28 01:50:15;;;;;;;;;;;;;;;2.98;100.00;95917.75;10578940;27;2055;-64
2023/12/28 01:55:20;;;;;;;;;;;;;;;2.96;100.00;95911.84;10606321;27;2085;-63
2023/12/28 02:00:24;;;;;;;;;;;;;;;2.97;100.00;95900.19;10583370;27;2062;-66
2023/12/28 02:05:27;;;;;;;;;;;;;;;3.13;100.00;95910.22;10602728;27;1920;-65
2023/12/28 02:10:31;;;;;;;;;;;;;;;3.30;100.00;95909.59;10585398;27;2400;-71
2023/12/28 02:15:36;;;;;;;;;;;;;;;3.43;100.00;95902.25;10605464;27;4935;-67
2023/12/28 02:20:41;;;;;;;;;;;;;;;3.45;100.00;95902.06;10586039;27;2092;-66
2023/12/28 02:25:45;;;;;;;;;;;;;;;3.15;100.00;95907.34;10585339;27;2325;-63
2023/12/28 02:30:49;;;;;;;;;;;;;;;2.98;100.00;95915.09;10590042;27;2144;-63
2023/12/28 02:35:53;;;;;;;;;;;;;;;2.89;100.00;95916.44;10582843;27;1952;-63
2023/12/28 02:40:57;;;;;;;;;;;;;;;2.80;100.00;95915.09;10598868;27;2031;-63
2023/12/28 02:46:06;;;;;;;;;;;;;;;2.72;100.00;95909.03;10602048;27;1903;-64
2023/12/28 02:51:16;;;;;;;;;;;;;;;2.75;100.00;95907.81;10595007;27;1918;-65
2023/12/28 02:56:20;;;;;;;;;;;;;;;2.72;100.00;95898.44;10604872;27;1970;-64
2023/12/28 03:01:24;;;;;;;;;;;;;;;2.96;100.00;95899.38;10581563;27;1909;-66
2023/12/28 03:06:27;;;;;;;;;;;;;;;3.10;100.00;95894.72;10573354;27;1914;-64
2023/12/28 03:11:30;;;;;;;;;;;;;;;3.44;100.00;95895.94;10596355;27;1904;-66
2023/12/28 03:16:34;;;;;;;;;;;;;;;3.50;100.00;95904.84;10602957;27;1918;-68
2023/12/28 03:21:38;;;;;;;;;;;;;;;3.37;100.00;95899.69;10587209;27;1868;-64
2023/12/28 03:26:42;;;;;;;;;;;;;;;3.43;100.00;95898.78;10605323;27;2471;-64
2023/12/28 03:31:44;;;;;;;;;;;;;;;3.52;100.00;95900.09;10583205;27;2013;-64
2023/12/28 03:36:48;;;;;;;;;;;;;;;3.69;100.00;95893.13;10592677;27;1938;-64
2023/12/28 03:41:53;;;;;;;;;;;;;;;3.74;100.00;95877.28;10600848;27;1863;-64
2023/12/28 03:46:56;;;;;;;;;;;;;;;3.83;100.00;95890.25;10598015;27;1873;-64
2023/12/28 03:52:00;;;;;;;;;;;;;;;3.89;100.00;95887.50;10594272;27;1917;-64
2023/12/28 03:57:04;;;;;;;;;;;;;;;4.02;100.00;95897.13;10565568;27;2049;-64
2023/12/28 04:02:06;;;;;;;;;;;;;;;4.05;100.00;95896.63;10596105;27;1995;-64
2023/12/28 04:07:24;;;;;;;;;;;;;;;4.15;100.00;95901.41;10597342;27;1892;-63
2023/12/28 04:12:29;;;;;;;;;;;;;;;4.03;100.00;95914.69;10609806;27;5069;-65
2023/12/28 04:17:37;;;;;;;;;;;;;;;4.08;100.00;95914.81;10608369;27;1976;-64
2023/12/28 04:22:43;;;;;;;;;;;;;;;3.99;100.00;95913.50;10607709;27;1935;-65
2023/12/28 04:27:49;;;;;;;;;;;;;;;3.94;100.00;95921.38;10603610;27;1881;-64
2023/12/28 04:32:52;;;;;;;;;;;;;;;4.09;100.00;95916.44;10597910;27;1886;-64
2023/12/28 04:37:57;;;;;;;;;;;;;;;4.15;100.00;95912.88;10606667;27;2111;-64
2023/12/28 04:43:02;;;;;;;;;;;;;;;4.42;100.00;95918.53;10589274;27;1857;-64
2023/12/28 04:48:06;;;;;;;;;;;;;;;4.51;100.00;95927.78;10587099;27;1968;-64
2023/12/28 04:53:09;;;;;;;;;;;;;;;4.57;100.00;95924.19;10606337;27;1848;-65
2023/12/28 04:58:14;;;;;;;;;;;;;;;4.68;100.00;95919.13;10588764;27;1917;-64
2023/12/28 05:03:22;;;;;;;;;;;;;;;4.59;100.00;95918.66;10597615;27;1840;-63
2023/12/28 05:08:29;;;;;;;;;;;;;;;4.49;100.00;95932.53;10625182;27;2515;-64
2023/12/28 05:13:34;;;;;;;;;;;;;;;4.39;100.00;95936.81;10600202;27;5082;-63
2023/12/28 05:18:38;;;;;;;;;;;;;;;4.22;100.00;95936.69;10581237;27;2433;-63
2023/12/28 05:23:41;;;;;;;;;;;;;;;4.28;100.00;95949.91;10585912;27;2005;-63
2023/12/28 05:28:45;;;;;;;;;;;;;;;4.04;100.00;95957.00;10590079;27;1948;-65
2023/12/28 05:33:53;;;;;;;;;;;;;;;3.97;100.00;95958.16;10593836;27;1890;-63
2023/12/28 05:38:55;;;;;;;;;;;;;;;3.91;100.00;95937.78;10599210;27;1965;-63
2023/12/28 05:44:01;;;;;;;;;;;;;;;3.93;100.00;95946.34;10591968;27;2059;-64
2023/12/28 05:49:05;;;;;;;;;;;;;;;4.07;100.00;95947.75;10587848;27;1888;-66
2023/12/28 05:54:09;;;;;;;;;;;;;;;4.13;100.00;95946.03;10588194;27;1912;-65
2023/12/28 05:59:12;;;;;;;;;;;;;;;4.25;100.00;95955.66;10597717;27;1983;-64
2023/12/28 06:04:20;;;;;;;;;;;;;;;4.21;100.00;95945.72;10603667;27;2007;-63
2023/12/28 06:09:27;;;;;;;;;;;;;;;4.27;100.00;95953.59;10586142;27;2118;-64
2023/12/28 06:14:31;;;;;;;;;;;;;;;4.29;100.00;95948.84;10604239;27;5077;-65
2023/12/28 06:19:34;;;;;;;;;;;;;;;4.24;100.00;95948.72;10602359;27;2034;-66
2023/12/28 06:24:39;;;;;;;;;;;;;;;4.44;100.00;95950.25;10571348;27;1835;-71
2023/12/28 06:29:42;;;;;;;;;;;;;;;4.60;100.00;95952.22;10606912;27;1945;-70
2023/12/28 06:34:48;;;;;;;;;;;;;;;4.45;100.00;95943.88;10602678;27;1945;-65
2023/12/28 06:39:53;;;;;;;;;;;;;;;4.27;100.00;95958.13;10602268;27;1914;-65
2023/12/28 06:45:03;;;;;;;;;;;;;;;4.08;100.00;95952.06;10608305;27;1853;-65
2023/12/28 06:50:06;;;;;;;;;;;;;;;3.91;100.00;95954.56;10581257;27;1930;-64
2023/12/28 06:55:11;;;;;;;;;;;;;;;3.83;100.00;95954.06;10600618;27;1798;-64
2023/12/28 07:00:13;;;;;;;;;;;;;;;3.79;100.00;95961.69;10602679;27;1979;-65
2023/12/28 07:05:16;;;;;;;;;;;;;;;3.79;100.00;95951.84;10595014;27;2134;-65
2023/12/28 07:10:21;;;;;;;;;;;;;;;3.77;100.00;95943.31;10598534;27;1925;-67
2023/12/28 07:15:28;;;;;;;;;;;;;;;3.88;100.00;95933.75;10598060;27;4959;-65
2023/12/28 07:20:32;;;;;;;;;;;;;;;3.94;100.00;95939.97;10574777;27;1985;-65
2023/12/28 07:25:39;;;;;;;;;;;;;;;4.02;100.00;95943.16;10584606;27;2056;-63
2023/12/28 07:30:43;;;;;;;;;;;;;;;4.09;100.00;95947.56;10586162;27;2015;-65
2023/12/28 07:35:47;;;;;;;;;;;;;;;4.20;100.00;95949.41;10596868;27;2816;-65
2023/12/28 07:40:50;;;;;;;;;;;;;;;4.28;100.00;95952.56;10595107;27;1913;-65
2023/12/28 07:45:55;;;;;;;;;;;;;;;4.51;100.00;95953.59;10581445;27;1908;-64
2023/12/28 07:50:58;;;;;;;;;;;;;;;4.65;100.00;95962.19;10584309;27;1965;-64
2023/12/28 07:56:02;;;;;;;;;;;;;;;4.88;100.00;95959.50;10582511;27;1878;-64
2023/12/28 08:01:10;;;;;;;;;;;;;;;4.97;100.00;95957.31;10595120;27;1913;-64
2023/12/28 08:06:15;;;;;;;;;;;;;;;5.20;100.00;95967.13;10594643;27;1876;-64
2023/12/28 08:11:20;;;;;;;;;;;;;;;5.37;100.00;95984.00;10581316;27;2123;-63
2023/12/28 08:16:23;;;;;;;;;;;;;;;5.56;100.00;95971.31;10597752;27;1897;-64
2023/12/28 08:21:26;;;;;;;;;;;;;;;5.74;100.00;95973.81;10610363;27;1986;-65
2023/12/28 08:26:29;;;;;;;;;;;;;;;5.94;100.00;95974.22;10598155;27;1981;-64
2023/12/28 08:31:32;;;;;;;;;;;;;;;6.31;99.51;95973.78;10582133;27;2416;-65
2023/12/28 08:36:35;;;;;;;;;;;;;;;6.56;90.39;95988.63;10579697;27;2145;-65
2023/12/28 08:41:38;;;;;;;;;;;;;;;6.69;96.47;95981.09;10572353;27;1914;-65
2023/12/28 08:46:41;;;;;;;;;;;;;;;6.91;93.39;95980.31;10574716;27;1969;-65
2023/12/28 08:51:45;;;;;;;;;;;;;;;7.11;85.60;95979.81;10599780;27;1862;-65
2023/12/28 08:56:48;;;;;;;;;;;;;;;7.40;81.10;95981.28;10607897;27;1897;-65
2023/12/28 09:02:03;;;;;;;;;;;;;;;7.51;83.28;95977.69;10606074;27;2002;-65
2023/12/28 09:07:09;;;;;;;;;;;;;;;7.73;78.54;95982.19;10589156;27;1887;-66
2023/12/28 09:12:12;;;;;;;;;;;;;;;7.95;77.22;95977.66;10603632;27;5058;-64
2023/12/28 09:17:16;;;;;;;;;;;;;;;8.14;75.13;95975.41;10586947;27;2130;-65
2023/12/28 09:22:20;;;;;;;;;;;;;;;8.44;71.38;95974.91;10591001;27;2264;-64
2023/12/28 09:27:25;;;;;;;;;;;;;;;8.63;70.47;95969.97;10591960;27;1885;-65
2023/12/28 09:32:30;;;;;;;;;;;;;;;8.85;66.82;95967.22;10582550;27;1899;-64
2023/12/28 09:37:35;;;;;;;;;;;;;;;9.13;66.23;95969.53;10620264;27;2039;-64
2023/12/28 09:42:38;;;;;;;;;;;;;;;9.44;61.57;95950.91;10618046;27;2029;-64
2023/12/28 09:47:41;;;;;;;;;;;;;;;9.78;58.45;95958.53;10585365;27;1935;-64
2023/12/28 09:52:49;;;;;;;;;;;;;;;10.07;57.43;95961.59;10601671;27;2104;-65
2023/12/28 09:57:55;;;;;;;;;;;;;;;10.42;55.91;95955.47;10584701;27;2360;-65
2023/12/28 10:03:04;;;;;;;;;;;;;;;10.58;52.85;95965.16;10598043;27;1959;-64
2023/12/28 10:08:07;;;;;;;;;;;;;;;10.73;52.80;95961.66;10596333;27;1932;-64
2023/12/28 10:13:10;;;;;;;;;;;;;;;10.89;52.06;95957.09;10594601;27;1945;-64
2023/12/28 10:18:13;;;;;;;;;;;;;;;10.94;52.90;95955.22;10594305;27;1902;-69
2023/12/28 10:23:17;;;;;;;;;;;;;;;11.05;52.00;95958.66;10586895;27;2435;-65
2023/12/28 10:28:22;;;;;;;;;;;;;;;11.08;53.46;95942.00;10578055;27;1873;-65
2023/12/28 10:33:26;;;;;;;;;;;;;;;11.10;51.68;95950.59;10599177;27;2000;-65
2023/12/28 10:38:30;;;;;;;;;;;;;;;11.21;50.22;95936.06;10585297;27;1974;-66
2023/12/28 10:43:35;;;;;;;;;;;;;;;11.35;50.00;95925.50;10605196;27;1921;-67
2023/12/28 10:48:38;;;;;;;;;;;;;;;11.59;48.27;95925.69;10596600;27;1917;-71
2023/12/28 10:53:41;;;;;;;;;;;;;;;11.53;49.21;95926.78;10589765;27;1989;-71
2023/12/28 10:58:46;;;;;;;;;;;;;;;11.80;48.35;95926.41;10616107;27;1984;-64
2023/12/28 11:03:49;;;;;;;;;;;;;;;11.84;47.27;95914.81;10599322;27;2114;-65
2023/12/28 11:08:53;;;;;;;;;;;;;;;11.87;46.56;95906.19;10563760;27;2239;-67
2023/12/28 11:13:58;;;;;;;;;;;;;;;11.87;47.94;95900.00;10606771;27;2010;-65
2023/12/28 11:19:05;;;;;;;;;;;;;;;11.84;47.16;95895.19;10593046;27;2453;-66
2023/12/28 11:24:10;;;;;;;;;;;;;;;11.92;47.80;95891.09;10579986;27;2000;-66
2023/12/28 11:29:17;;;;;;;;;;;;;;;11.99;48.70;95897.75;10590671;27;2016;-65
2023/12/28 11:34:26;;;;;;;;;;;;;;;12.00;48.70;95893.97;10580903;27;2081;-66
2023/12/28 11:39:30;;;;;;;;;;;;;;;12.07;47.91;95886.38;10596616;27;1975;-65
2023/12/28 11:44:37;;;;;;;;;;;;;;;12.17;49.66;95863.97;10602254;27;2152;-65
2023/12/28 11:49:41;;;;;;;;;;;;;;;12.25;48.98;95876.03;10597805;27;1902;-65
2023/12/28 11:54:44;;;;;;;;;;;;;;;12.08;50.47;95871.03;10601496;27;1976;-65
2023/12/28 11:59:47;;;;;;;;;;;;;;;12.14;49.92;95872.59;10592253;27;2017;-65
2023/12/28 12:04:52;;;;;;;;;;;;;;;11.89;49.94;95871.69;10584828;27;1897;-65
2023/12/28 12:09:59;;;;;;;;;;;;;;;11.84;48.08;95877.13;10588549;27;2013;-65
2023/12/28 12:15:07;;;;;;;;;;;;;;;11.83;46.76;95872.81;10584573;27;2471;-65
2023/12/28 12:20:14;;;;;;;;;;;;;;;11.57;48.05;95863.22;10601466;27;2126;-65
2023/12/28 12:25:19;;;;;;;;;;;;;;;11.60;49.04;95857.31;10588780;27;1858;-66
2023/12/28 12:30:23;;;;;;;;;;;;;;;11.50;49.08;95857.34;10592160;27;1946;-68
2023/12/28 12:35:34;;;;;;;;;;;;;;;11.46;49.18;95854.41;10604093;27;1898;-66
2023/12/28 12:40:37;;;;;;;;;;;;;;;11.36;50.46;95857.94;10605827;27;1991;-66
2023/12/28 12:45:41;;;;;;;;;;;;;;;11.35;50.99;95845.56;10588715;27;1989;-65
2023/12/28 12:50:48;;;;;;;;;;;;;;;11.35;51.21;95856.34;10605237;27;2043;-66
2023/12/28 12:55:53;;;;;;;;;;;;;;;11.34;51.53;95849.34;10588708;27;2003;-73
2023/12/28 13:00:56;;;;;;;;;;;;;;;11.29;51.09;95843.97;10609006;27;1987;-76
2023/12/28 13:05:59;;;;;;;;;;;;;;;11.40;51.59;95843.94;10598285;27;1936;-74
2023/12/28 13:11:02;;;;;;;;;;;;;;;11.38;51.79;95839.63;10603543;27;1995;-75
2023/12/28 13:16:06;;;;;;;;;;;;;;;11.33;52.41;95836.97;10590456;27;5200;-68
2023/12/28 13:21:09;;;;;;;;;;;;;;;11.31;53.16;95839.13;10594176;27;2198;-66
2023/12/28 13:26:12;;;;;;;;;;;;;;;11.38;52.45;95855.78;10591614;27;2889;-67
2023/12/28 13:31:18;;;;;;;;;;;;;;;11.29;53.64;95846.69;10596469;27;1901;-66
2023/12/28 13:36:21;;;;;;;;;;;;;;;11.17;55.01;95850.75;10594839;27;2083;-67
2023/12/28 13:41:25;;;;;;;;;;;;;;;11.22;56.58;95840.00;10603917;27;1980;-65
2023/12/28 13:46:28;;;;;;;;;;;;;;;11.07;57.55;95841.66;10588194;27;1845;-65
2023/12/28 13:51:33;;;;;;;;;;;;;;;11.05;58.47;95848.38;10586930;27;1993;-65
2023/12/28 13:56:37;;;;;;;;;;;;;;;11.12;58.59;95851.59;10607956;27;2059;-67
2023/12/28 14:01:43;;;;;;;;;;;;;;;11.13;59.57;95850.50;10601051;27;1920;-65
2023/12/28 14:06:50;;;;;;;;;;;;;;;11.05;61.69;95857.25;10584351;27;2474;-66
2023/12/28 14:11:54;;;;;;;;;;;;;;;10.96;62.48;95855.41;10602085;27;5137;-65
2023/12/28 14:17:00;;;;;;;;;;;;;;;10.88;64.68;95855.97;10602454;27;2195;-65
2023/12/28 14:22:04;;;;;;;;;;;;;;;10.88;67.47;95850.59;10597821;27;1917;-65
2023/12/28 14:27:10;;;;;;;;;;;;;;;10.79;66.20;95856.53;10581751;27;2190;-65
2023/12/28 14:32:21;;;;;;;;;;;;;;;10.71;68.35;95846.34;10586038;27;2339;-65
2023/12/28 14:37:24;;;;;;;;;;;;;;;10.68;68.37;95840.69;10617196;27;2162;-68
2023/12/28 14:42:28;;;;;;;;;;;;;;;10.51;71.86;95849.06;10596842;27;2024;-65
2023/12/28 14:47:36;;;;;;;;;;;;;;;10.46;72.72;95855.25;10597606;27;2208;-66
2023/12/28 14:52:42;;;;;;;;;;;;;;;10.40;73.91;95855.53;10603888;27;2187;-67
2023/12/28 14:57:45;;;;;;;;;;;;;;;10.29;75.87;95858.19;10599833;27;1992;-66
2023/12/28 15:02:53;;;;;;;;;;;;;;;10.22;78.04;95854.94;10583345;27;2063;-65
2023/12/28 15:07:57;;;;;;;;;;;;;;;10.17;78.45;95857.63;10586556;27;2115;-66
2023/12/28 15:13:03;;;;;;;;;;;;;;;10.09;79.30;95860.84;10585255;27;5077;-65
2023/12/28 15:18:07;;;;;;;;;;;;;;;10.07;78.00;95860.34;10591301;27;1964;-71
2023/12/28 15:23:10;;;;;;;;;;;;;;;9.95;78.16;95857.91;10595667;27;2058;-65
2023/12/28 15:28:18;;;;;;;;;;;;;;;9.88;78.69;95875.34;10603094;27;2035;-64
2023/12/28 15:33:23;;;;;;;;;;;;;;;10.02;74.38;95871.06;10607036;27;2151;-69
2023/12/28 15:38:29;;;;;;;;;;;;;;;10.07;69.84;95879.13;10581434;27;1957;-65
2023/12/28 15:43:35;;;;;;;;;;;;;;;9.97;70.25;95868.38;10607201;27;2295;-65
2023/12/28 15:48:39;;;;;;;;;;;;;;;9.91;71.14;95874.81;10581422;27;1960;-65
2023/12/28 15:53:45;;;;;;;;;;;;;;;10.01;67.95;95864.09;10580831;27;1827;-64
2023/12/28 15:58:48;;;;;;;;;;;;;;;9.97;68.73;95863.00;10596284;27;2189;-64
2023/12/28 16:03:53;;;;;;;;;;;;;;;9.95;68.27;95855.22;10589201;27;1973;-64
2023/12/28 16:09:00;;;;;;;;;;;;;;;9.99;67.59;95850.13;10621934;27;2142;-64
2023/12/28 16:14:03;;;;;;;;;;;;;;;9.90;68.25;95846.34;10598901;27;5018;-65
2023/12/28 16:19:06;;;;;;;;;;;;;;;9.85;68.35;95843.66;10601945;27;2001;-65
2023/12/28 16:24:13;;;;;;;;;;;;;;;9.79;67.55;95855.44;10601204;27;2611;-65
2023/12/28 16:29:16;;;;;;;;;;;;;;;9.81;67.55;95847.97;10591734;27;2272;-66
2023/12/28 16:34:21;;;;;;;;;;;;;;;9.71;69.37;95852.22;10587366;27;1911;-65
2023/12/28 16:39:26;;;;;;;;;;;;;;;9.85;69.14;95859.75;10600122;27;1943;-65
2023/12/28 16:44:37;;;;;;;;;;;;;;;9.91;67.98;95845.25;10607261;27;2020;-69
2023/12/28 16:49:42;;;;;;;;;;;;;;;9.91;69.12;95856.81;10607278;27;2055;-65
2023/12/28 16:54:47;;;;;;;;;;;;;;;9.96;66.96;95843.41;10605979;27;2035;-64
2023/12/28 16:59:54;;;;;;;;;;;;;;;9.90;68.10;95851.72;10599120;27;2351;-63
2023/12/28 17:05:12;;;;;;;;;;;;;;;9.87;68.59;95846.91;10604797;27;1932;-66
2023/12/28 17:10:17;;;;;;;;;;;;;;;9.83;69.41;95846.59;10587163;27;2098;-66
2023/12/28 17:20:38;;;;;;;;;;;;;;;9.87;70.59;95846.91;10579129;27;2312;-65
2023/12/28 17:25:43;;;;;;;;;;;;;;;9.89;69.51;95850.91;10600972;27;1881;-64
2023/12/28 17:30:46;;;;;;;;;;;;;;;10.00;68.30;95849.84;10603958;27;1933;-64
2023/12/28 17:35:49;;;;;;;;;;;;;;;9.97;69.10;95845.00;10581440;27;1950;-65
2023/12/28 17:40:52;;;;;;;;;;;;;;;9.95;74.06;95836.41;10587842;27;2228;-65
2023/12/28 17:45:56;;;;;;;;;;;;;;;9.88;75.62;95830.50;10601059;27;1944;-66
2023/12/28 17:51:00;;;;;;;;;;;;;;;9.82;78.93;95846.88;10604226;27;2031;-65
2023/12/28 17:56:05;;;;;;;;;;;;;;;9.59;95.49;95840.94;10599605;27;1995;-65
2023/12/28 18:01:12;;;;;;;;;;;;;;;9.52;89.31;95837.69;10601801;27;2194;-65
2023/12/28 18:06:16;;;;;;;;;;;;;;;9.57;85.03;95834.22;10578926;27;1983;-65
2023/12/28 18:11:21;;;;;;;;;;;;;;;9.54;84.04;95843.59;10582516;27;1914;-66
2023/12/28 18:16:25;;;;;;;;;;;;;;;9.54;82.90;95832.84;10598742;27;2083;-66
2023/12/28 18:21:28;;;;;;;;;;;;;;;9.57;81.30;95821.59;10599674;27;2698;-66
2023/12/28 18:26:35;;;;;;;;;;;;;;;9.59;79.77;95827.50;10597231;27;1868;-64
2023/12/28 18:31:38;;;;;;;;;;;;;;;9.55;94.47;95837.19;10583396;27;2082;-66
2023/12/28 18:36:42;;;;;;;;;;;;;;;9.46;88.73;95825.34;10590028;27;2037;-66
2023/12/28 18:41:48;;;;;;;;;;;;;;;9.50;88.89;95821.06;10600979;27;2037;-65
2023/12/28 18:46:51;;;;;;;;;;;;;;;9.50;90.58;95823.75;10596680;27;1947;-65
2023/12/28 18:51:57;;;;;;;;;;;;;;;9.52;91.20;95823.47;10586026;27;1885;-65
2023/12/28 18:57:00;;;;;;;;;;;;;;;9.51;93.48;95809.25;10584235;27;1936;-66
2023/12/28 19:02:05;;;;;;;;;;;;;;;9.51;93.17;95803.88;10580549;27;2139;-65
2023/12/28 19:07:10;;;;;;;;;;;;;;;9.44;95.28;95816.75;10578360;27;1867;-68
2023/12/28 19:12:18;;;;;;;;;;;;;;;9.47;94.51;95818.88;10599588;27;5143;-68
2023/12/28 19:17:22;;;;;;;;;;;;;;;9.44;92.98;95806.03;10598027;27;2491;-69
2023/12/28 19:22:27;;;;;;;;;;;;;;;9.43;92.15;95804.41;10580218;27;1981;-66
2023/12/28 19:27:43;;;;;;;;;;;;;;;9.40;91.94;95800.38;10598893;27;2047;-65
2023/12/28 19:32:48;;;;;;;;;;;;;;;9.37;99.43;95800.09;10594143;27;2326;-69
2023/12/28 19:37:52;;;;;;;;;;;;;;;9.30;99.21;95780.78;10601100;27;2064;-71
2023/12/28 19:43:01;;;;;;;;;;;;;;;9.20;100.00;95787.72;10567452;27;1996;-69
2023/12/28 19:48:08;;;;;;;;;;;;;;;9.17;100.00;95800.88;10582392;27;2047;-67
2023/12/28 19:53:13;;;;;;;;;;;;;;;9.19;98.46;95802.19;10580870;27;2055;-66
2023/12/28 19:58:20;;;;;;;;;;;;;;;9.24;98.22;95797.94;10607321;27;2074;-68
2023/12/28 20:03:25;;;;;;;;;;;;;;;9.30;92.58;95788.81;10599858;27;2250;-75
2023/12/28 20:08:28;;;;;;;;;;;;;;;9.40;85.76;95783.47;10583682;27;2111;-73
2023/12/28 20:13:34;;;;;;;;;;;;;;;9.42;83.85;95789.38;10601445;27;5054;-69
2023/12/28 20:18:40;;;;;;;;;;;;;;;9.40;82.01;95794.19;10589432;27;2152;-67
2023/12/28 20:23:43;;;;;;;;;;;;;;;9.33;81.65;95799.81;10598969;27;1992;-66
2023/12/28 20:28:47;;;;;;;;;;;;;;;9.25;82.75;95807.59;10595722;27;2075;-66
2023/12/28 20:33:50;;;;;;;;;;;;;;;9.04;87.08;95804.84;10583333;27;2015;-65
2023/12/28 20:39:05;;;;;;;;;;;;;;;8.95;88.20;95809.06;10596062;27;1880;-67
2023/12/28 20:44:19;;;;;;;;;;;;;;;8.81;92.20;95819.47;10599335;27;2098;-66
2023/12/28 20:49:24;;;;;;;;;;;;;;;8.70;94.02;95817.81;10604775;27;2039;-68
2023/12/28 20:54:44;;;;;;;;;;;;;;;8.63;96.34;95827.97;10608171;27;1874;-67
2023/12/28 20:59:50;;;;;;;;;;;;;;;8.50;99.42;95823.88;10609316;27;1913;-66
2023/12/28 21:04:53;;;;;;;;;;;;;;;8.33;100.00;95828.53;10590957;27;1997;-67
2023/12/28 21:10:03;;;;;;;;;;;;;;;8.22;100.00;95818.84;10608070;27;2011;-67
2023/12/28 21:15:06;;;;;;;;;;;;;;;8.06;100.00;95817.91;10595775;27;2142;-66
2023/12/28 21:20:12;;;;;;;;;;;;;;;8.10;100.00;95819.81;10599537;27;2307;-66
2023/12/28 21:25:23;;;;;;;;;;;;;;;8.29;100.00;95825.59;10607987;27;1991;-66
2023/12/28 21:30:35;;;;;;;;;;;;;;;8.41;100.00;95828.09;10604737;27;1910;-66
2023/12/28 21:35:48;;;;;;;;;;;;;;;8.57;100.00;95829.00;10583091;27;1894;-66
2023/12/28 21:46:09;;;;;;;;;;;;;;;8.83;98.80;95835.28;10604802;27;1970;-67
2023/12/28 21:51:13;;;;;;;;;;;;;;;8.96;100.00;95832.13;10597690;27;2090;-65
2023/12/28 21:56:18;;;;;;;;;;;;;;;8.94;100.00;95840.44;10598925;27;2158;-67
2023/12/28 22:01:23;;;;;;;;;;;;;;;8.95;100.00;95846.63;10599511;27;2286;-66
2023/12/28 22:06:29;;;;;;;;;;;;;;;8.90;100.00;95844.72;10596648;27;2137;-67
2023/12/28 22:11:35;;;;;;;;;;;;;;;8.94;100.00;95847.69;10602662;27;2021;-66
2023/12/28 22:16:40;;;;;;;;;;;;;;;8.95;100.00;95846.63;10602750;27;2135;-67
2023/12/28 22:21:46;;;;;;;;;;;;;;;8.93;100.00;95849.56;10604433;27;2302;-71
2023/12/28 22:26:50;;;;;;;;;;;;;;;8.90;100.00;95855.44;10606396;27;2093;-66
2023/12/28 22:31:56;;;;;;;;;;;;;;;8.90;100.00;95859.97;10580459;27;2069;-66
2023/12/28 22:37:02;;;;;;;;;;;;;;;8.93;100.00;95849.56;10596091;27;1997;-65
2023/12/28 22:42:07;;;;;;;;;;;;;;;8.96;100.00;95853.59;10584059;27;2073;-64
2023/12/28 22:47:11;;;;;;;;;;;;;;;8.97;100.00;95857.06;10599143;27;2110;-66
2023/12/28 22:52:14;;;;;;;;;;;;;;;8.96;100.00;95869.66;10598121;27;2035;-66
2023/12/28 22:57:19;;;;;;;;;;;;;;;8.92;100.00;95865.91;10596648;27;1936;-67
2023/12/28 23:02:22;;;;;;;;;;;;;;;8.92;100.00;95863.22;10581895;27;2175;-69
2023/12/28 23:07:26;;;;;;;;;;;;;;;8.92;100.00;95864.03;10590738;27;2109;-69
2023/12/28 23:12:29;;;;;;;;;;;;;;;8.85;100.00;95862.66;10596461;27;5132;-70
2023/12/28 23:17:34;;;;;;;;;;;;;;;8.71;100.00;95848.09;10584878;27;2268;-68
2023/12/28 23:22:40;;;;;;;;;;;;;;;8.56;100.00;95851.50;10596897;27;2059;-68
2023/12/28 23:27:45;;;;;;;;;;;;;;;8.48;100.00;95841.28;10583191;27;2150;-67
2023/12/28 23:32:48;;;;;;;;;;;;;;;8.47;100.00;95829.75;10574929;27;2125;-69
2023/12/28 23:37:55;;;;;;;;;;;;;;;8.37;100.00;95835.84;10560151;27;2066;-70
2023/12/28 23:43:02;;;;;;;;;;;;;;;8.10;100.00;95835.88;10579067;27;2059;-70
2023/12/28 23:48:04;;;;;;;;;;;;;;;8.01;100.00;95828.56;10592068;27;2047;-70
2023/12/28 23:53:12;;;;;;;;;;;;;;;7.81;100.00;95832.69;10580692;27;2053;-69
2023/12/28 23:58:15;;;;;;;;;;;;;;;7.69;100.00;95828.56;10581930;27;1974;-69
